createdAt,value
2023-03-17T00:01:54.353Z,51.74
2023-03-17T00:04:25.557Z,52.07
2023-03-17T00:06:53.137Z,52.15
2023-03-17T00:09:20.893Z,51.98
2023-03-17T00:11:48.365Z,52.41
2023-03-17T00:14:16.749Z,52.47
2023-03-17T00:16:45.322Z,52.44
2023-03-17T00:19:17.321Z,52.72
2023-03-17T00:21:46.157Z,52.18
2023-03-17T00:24:15.077Z,52.03
2023-03-17T00:26:43.413Z,51.83
2023-03-17T00:29:10.853Z,51.95
2023-03-17T00:31:39.293Z,52.01
2023-03-17T00:34:08.128Z,52.10
2023-03-17T00:36:35.811Z,52.18
2023-03-17T00:39:04.202Z,52.70
2023-03-17T00:41:31.531Z,52.33
2023-03-17T00:43:59.745Z,52.30
2023-03-17T00:46:36.012Z,52.56
2023-03-17T00:49:10.755Z,53.14
2023-03-17T00:51:40.751Z,53.32
2023-03-17T00:54:10.537Z,53.29
2023-03-17T00:56:39.176Z,53.57
2023-03-17T00:59:21.763Z,53.91
2023-03-17T01:01:49.289Z,53.61
2023-03-17T01:04:16.605Z,53.08
2023-03-17T01:06:44.067Z,52.81
2023-03-17T01:09:16.250Z,53.22
2023-03-17T01:11:44.330Z,53.66
2023-03-17T01:14:11.995Z,54.14
2023-03-17T01:16:39.802Z,54.36
2023-03-17T01:19:07.182Z,54.41
2023-03-17T01:21:34.776Z,54.44
2023-03-17T01:24:02.872Z,54.04
2023-03-17T01:26:30.245Z,53.59
2023-03-17T01:28:57.580Z,53.79
2023-03-17T01:31:26.327Z,54.43
2023-03-17T01:33:54.100Z,54.85
2023-03-17T01:36:22.833Z,54.91
2023-03-17T01:38:51.048Z,54.87
2023-03-17T01:41:19.159Z,53.96
2023-03-17T01:43:46.426Z,53.66
2023-03-17T01:46:25.545Z,55.68
2023-03-17T01:49:12.763Z,56.61
2023-03-17T01:51:49.096Z,57.53
2023-03-17T01:54:34.829Z,56.36
2023-03-17T01:57:23.410Z,55.82
2023-03-17T02:00:05.282Z,57.06
2023-03-17T02:02:45.073Z,57.41
2023-03-17T02:05:13.717Z,56.49
2023-03-17T02:07:41.628Z,56.39
2023-03-17T02:10:09.935Z,56.51
2023-03-17T02:12:38.510Z,56.58
2023-03-17T02:15:06.310Z,57.20
2023-03-17T02:17:33.997Z,56.99
2023-03-17T02:20:32.800Z,57.43
2023-03-17T02:23:00.237Z,57.50
2023-03-17T02:25:28.676Z,59.44
2023-03-17T02:27:57.902Z,60.56
2023-03-17T02:30:25.356Z,61.10
2023-03-17T02:32:52.774Z,61.70
2023-03-17T02:35:22.472Z,61.84
2023-03-17T02:37:49.873Z,61.74
2023-03-17T02:40:17.621Z,61.83
2023-03-17T02:42:45.019Z,62.33
2023-03-17T02:45:13.220Z,62.84
2023-03-17T02:47:41.547Z,62.05
2023-03-17T02:50:09.737Z,61.10
2023-03-17T02:52:37.454Z,60.05
2023-03-17T02:55:05.746Z,60.21
2023-03-17T02:57:33.168Z,59.87
2023-03-17T03:00:00.470Z,59.99
2023-03-17T03:02:27.894Z,59.62
2023-03-17T03:04:56.484Z,59.13
2023-03-17T03:07:23.842Z,59.85
2023-03-17T03:09:51.102Z,59.26
2023-03-17T03:12:18.412Z,59.41
2023-03-17T03:14:46.121Z,59.96
2023-03-17T03:17:13.532Z,60.51
2023-03-17T03:19:40.829Z,59.87
2023-03-17T03:22:08.469Z,59.78
2023-03-17T03:24:35.837Z,60.53
2023-03-17T03:27:03.211Z,60.85
2023-03-17T03:29:30.762Z,60.46
2023-03-17T03:31:58.069Z,60.48
2023-03-17T03:34:25.376Z,60.31
2023-03-17T03:36:52.778Z,60.27
2023-03-17T03:39:20.036Z,60.20
2023-03-17T03:41:47.447Z,60.32
2023-03-17T03:44:14.763Z,60.35
2023-03-17T03:46:42.065Z,60.70
2023-03-17T03:49:09.337Z,60.59
2023-03-17T03:51:36.869Z,60.67
2023-03-17T03:54:04.148Z,60.47
2023-03-17T03:56:31.476Z,60.40
2023-03-17T03:58:58.774Z,60.76
2023-03-17T04:01:26.187Z,60.60
2023-03-17T04:03:53.459Z,61.46
2023-03-17T04:06:20.811Z,61.38
2023-03-17T04:08:48.081Z,60.95
2023-03-17T04:11:15.503Z,61.45
2023-03-17T04:13:42.841Z,61.62
2023-03-17T04:16:10.231Z,61.76
2023-03-17T04:18:37.531Z,61.62
2023-03-17T04:21:05.410Z,61.65
2023-03-17T04:23:32.673Z,61.77
2023-03-17T04:26:00.072Z,60.53
2023-03-17T04:28:27.431Z,60.77
2023-03-17T04:30:54.817Z,61.61
2023-03-17T04:33:22.537Z,62.58
2023-03-17T04:35:49.985Z,62.11
2023-03-17T04:38:17.495Z,62.10
2023-03-17T04:40:44.865Z,62.80
2023-03-17T04:43:12.278Z,62.54
2023-03-17T04:45:39.655Z,62.77
2023-03-17T04:48:07.116Z,62.69
2023-03-17T04:50:34.594Z,63.02
2023-03-17T04:53:02.147Z,63.36
2023-03-17T04:55:29.522Z,63.69
2023-03-17T04:57:56.882Z,64.82
2023-03-17T05:00:24.588Z,64.31
2023-03-17T05:02:51.856Z,65.52
2023-03-17T05:05:19.170Z,65.33
2023-03-17T05:07:46.826Z,64.89
2023-03-17T05:10:15.132Z,65.53
2023-03-17T05:12:42.490Z,65.81
2023-03-17T05:15:10.177Z,65.70
2023-03-17T05:17:37.486Z,65.77
2023-03-17T05:20:05.854Z,65.58
2023-03-17T05:22:33.114Z,65.09
2023-03-17T05:25:00.720Z,64.33
2023-03-17T05:27:28.216Z,63.44
2023-03-17T05:29:55.740Z,63.08
2023-03-17T05:32:23.257Z,63.92
2023-03-17T05:34:50.687Z,63.44
2023-03-17T05:37:18.212Z,63.33
2023-03-17T05:39:46.011Z,63.41
2023-03-17T05:42:13.977Z,62.37
2023-03-17T05:44:41.354Z,61.51
2023-03-17T05:47:08.790Z,61.31
2023-03-17T05:49:36.245Z,60.61
2023-03-17T05:52:03.551Z,60.86
2023-03-17T05:54:30.902Z,61.06
2023-03-17T05:56:58.589Z,60.29
2023-03-17T05:59:25.969Z,59.99
2023-03-17T06:01:53.525Z,59.75
2023-03-17T06:04:21.190Z,59.16
2023-03-17T06:06:48.764Z,59.10
2023-03-17T06:09:16.101Z,58.98
2023-03-17T06:11:44.206Z,58.17
2023-03-17T06:14:11.572Z,57.26
2023-03-17T06:16:38.889Z,56.92
2023-03-17T06:19:06.403Z,56.43
2023-03-17T06:21:33.909Z,56.41
2023-03-17T06:24:01.982Z,56.02
2023-03-17T06:26:29.424Z,56.19
2023-03-17T06:28:57.698Z,55.70
2023-03-17T06:31:25.069Z,55.56
2023-03-17T06:33:52.763Z,55.14
2023-03-17T06:36:20.146Z,54.69
2023-03-17T06:38:47.687Z,54.64
2023-03-17T06:41:15.353Z,54.42
2023-03-17T06:43:42.988Z,53.49
2023-03-17T06:46:10.896Z,51.80
2023-03-17T06:48:38.660Z,50.30
2023-03-17T06:51:09.093Z,49.07
2023-03-17T06:53:37.496Z,47.17
2023-03-17T06:56:20.035Z,45.70
2023-03-17T06:58:55.217Z,43.54
2023-03-17T07:01:24.121Z,41.77
2023-03-17T07:04:01.538Z,39.52
2023-03-17T07:06:29.661Z,38.68
2023-03-17T07:08:58.080Z,39.48
2023-03-17T07:11:26.591Z,39.39
2023-03-17T07:13:57.026Z,38.95
2023-03-17T07:16:24.760Z,37.96
2023-03-17T07:18:52.622Z,37.96
2023-03-17T07:21:23.809Z,38.09
2023-03-17T07:23:57.117Z,37.74
2023-03-17T07:26:33.736Z,37.53
2023-03-17T07:29:11.301Z,37.86
2023-03-17T07:31:38.811Z,37.37
2023-03-17T07:34:06.831Z,38.42
2023-03-17T07:36:34.532Z,38.18
2023-03-17T07:39:02.002Z,38.18
2023-03-17T07:41:44.556Z,37.89
2023-03-17T07:44:14.999Z,37.55
2023-03-17T07:46:42.721Z,38.44
2023-03-17T07:49:11.017Z,38.87
2023-03-17T07:51:38.874Z,38.73
2023-03-17T07:54:06.563Z,37.69
2023-03-17T07:56:35.077Z,36.59
2023-03-17T07:59:07.855Z,37.17
2023-03-17T08:01:35.872Z,35.94
2023-03-17T08:04:04.920Z,36.82
2023-03-17T08:06:32.947Z,37.27
2023-03-17T08:09:00.455Z,37.26
2023-03-17T08:11:29.465Z,38.33
2023-03-17T08:13:57.091Z,38.01
2023-03-17T08:16:24.740Z,37.80
2023-03-17T08:18:52.250Z,37.99
2023-03-17T08:21:19.764Z,37.07
2023-03-17T08:23:47.438Z,37.18
2023-03-17T08:26:15.043Z,37.42
2023-03-17T08:28:43.120Z,37.39
2023-03-17T08:31:13.800Z,36.53
2023-03-17T08:33:42.595Z,35.82
2023-03-17T08:36:10.382Z,36.51
2023-03-17T08:38:38.147Z,38.41
2023-03-17T08:41:08.423Z,39.77
2023-03-17T08:43:36.181Z,40.77
2023-03-17T08:46:08.951Z,41.42
2023-03-17T08:48:36.878Z,41.37
2023-03-17T08:51:06.107Z,40.06
2023-03-17T08:53:35.201Z,39.06
2023-03-17T08:56:03.110Z,38.35
2023-03-17T08:58:30.959Z,38.24
2023-03-17T09:01:00.830Z,37.71
2023-03-17T09:03:28.361Z,36.98
2023-03-17T09:05:55.657Z,36.75
2023-03-17T09:08:30.899Z,35.78
2023-03-17T09:10:59.523Z,35.22
2023-03-17T09:13:28.069Z,35.78
2023-03-17T09:15:56.315Z,35.54
2023-03-17T09:18:24.118Z,35.58
2023-03-17T09:20:56.213Z,35.57
2023-03-17T09:23:24.246Z,35.18
2023-03-17T09:25:52.250Z,34.45
2023-03-17T09:28:23.365Z,33.88
2023-03-17T09:30:52.469Z,33.66
2023-03-17T09:33:27.964Z,33.35
2023-03-17T09:35:58.938Z,33.19
2023-03-17T09:38:28.014Z,32.88
2023-03-17T09:41:29.500Z,32.32
2023-03-17T09:44:16.538Z,31.82
2023-03-17T09:46:47.228Z,32.18
2023-03-17T09:49:25.768Z,32.49
2023-03-17T09:51:53.394Z,31.74
2023-03-17T09:54:31.729Z,31.12
2023-03-17T09:57:08.826Z,31.60
2023-03-17T09:59:39.263Z,31.38
2023-03-17T10:02:33.860Z,30.99
2023-03-17T10:05:32.033Z,31.04
2023-03-17T10:08:31.532Z,31.31
2023-03-17T10:11:14.130Z,30.97
2023-03-17T10:13:48.750Z,31.26
2023-03-17T10:16:21.041Z,31.07
2023-03-17T10:19:02.846Z,30.86
2023-03-17T10:21:32.502Z,30.77
2023-03-17T10:24:00.463Z,30.75
2023-03-17T10:26:43.086Z,30.29
2023-03-17T10:29:19.577Z,30.50
2023-03-17T10:31:47.832Z,30.78
2023-03-17T10:34:17.404Z,30.84
2023-03-17T10:36:47.514Z,31.29
2023-03-17T10:39:19.103Z,30.52
2023-03-17T10:41:52.963Z,30.23
2023-03-17T10:44:49.888Z,30.56
2023-03-17T10:47:22.831Z,30.86
2023-03-17T10:49:52.425Z,31.26
2023-03-17T10:52:23.780Z,30.58
2023-03-17T10:54:51.497Z,30.49
2023-03-17T10:57:19.053Z,30.84
2023-03-17T10:59:54.144Z,30.41
2023-03-17T11:02:35.818Z,29.99
2023-03-17T11:05:09.627Z,30.07
2023-03-17T11:07:41.834Z,30.46
2023-03-17T11:10:22.205Z,29.17
2023-03-17T11:12:59.353Z,29.59
2023-03-17T11:15:32.364Z,29.91
2023-03-17T11:18:02.821Z,29.68
2023-03-17T11:20:48.653Z,30.05
2023-03-17T11:23:19.477Z,29.61
2023-03-17T11:25:47.683Z,28.55
2023-03-17T11:28:28.008Z,29.03
2023-03-17T11:31:13.239Z,29.23
2023-03-17T11:34:05.605Z,28.99
2023-03-17T11:36:41.289Z,29.24
2023-03-17T11:39:23.457Z,29.02
2023-03-17T11:42:00.384Z,28.46
2023-03-17T11:44:38.751Z,27.50
2023-03-17T11:47:34.603Z,27.70
2023-03-17T11:50:20.965Z,27.69
2023-03-17T11:53:03.811Z,27.24
2023-03-17T11:55:45.513Z,27.28
2023-03-17T11:58:31.151Z,26.60
2023-03-17T12:01:02.424Z,27.58
2023-03-17T12:03:48.107Z,26.61
2023-03-17T12:06:33.845Z,26.80
2023-03-17T12:09:21.066Z,27.49
2023-03-17T12:11:56.253Z,27.22
2023-03-17T12:14:33.052Z,27.28
2023-03-17T12:17:46.817Z,27.45
2023-03-17T12:20:27.326Z,27.67
2023-03-17T12:23:05.798Z,28.11
2023-03-17T12:25:45.956Z,28.59
2023-03-17T12:28:22.666Z,28.54
2023-03-17T12:30:50.860Z,28.19
2023-03-17T12:33:25.321Z,28.13
2023-03-17T12:35:55.182Z,28.26
2023-03-17T12:38:30.628Z,27.94
2023-03-17T12:41:22.109Z,27.46
2023-03-17T12:44:02.294Z,27.47
2023-03-17T12:46:36.627Z,27.23
2023-03-17T12:49:26.082Z,26.94
2023-03-17T12:52:13.881Z,26.77
2023-03-17T12:54:45.366Z,26.40
2023-03-17T12:57:20.454Z,26.02
2023-03-17T12:59:49.872Z,26.60
2023-03-17T13:02:38.749Z,25.90
2023-03-17T13:05:09.388Z,25.62
2023-03-17T13:07:54.105Z,25.21
2023-03-17T13:10:48.879Z,25.37
2023-03-17T13:13:36.347Z,24.28
2023-03-17T13:16:06.081Z,24.42
2023-03-17T13:18:36.826Z,24.22
2023-03-17T13:21:04.312Z,25.13
2023-03-17T13:23:40.131Z,25.69
2023-03-17T13:26:08.092Z,25.46
2023-03-17T13:28:35.483Z,24.76
2023-03-17T13:31:10.397Z,24.52
2023-03-17T13:33:46.144Z,24.65
2023-03-17T13:36:27.667Z,23.70
2023-03-17T13:39:19.795Z,25.46
2023-03-17T13:42:23.352Z,25.64
2023-03-17T13:45:13.306Z,24.92
2023-03-17T13:47:42.519Z,24.32
2023-03-17T13:50:14.792Z,24.05
2023-03-17T13:52:53.742Z,24.33
2023-03-17T13:55:24.387Z,24.54
2023-03-17T13:57:57.404Z,23.83
2023-03-17T14:00:28.390Z,24.40
2023-03-17T14:03:18.183Z,24.64
2023-03-17T14:05:50.423Z,24.95
2023-03-17T14:08:27.905Z,24.72
2023-03-17T14:11:00.778Z,24.12
2023-03-17T14:13:28.832Z,24.08
2023-03-17T14:16:11.943Z,24.11
2023-03-17T14:18:40.544Z,24.33
2023-03-17T14:21:18.947Z,24.61
2023-03-17T14:24:00.147Z,25.22
2023-03-17T14:26:29.336Z,24.91
2023-03-17T14:28:59.621Z,24.76
2023-03-17T14:31:28.306Z,25.10
2023-03-17T14:33:59.165Z,25.49
2023-03-17T14:36:27.822Z,25.40
2023-03-17T14:38:56.513Z,25.53
2023-03-17T14:41:27.698Z,25.37
2023-03-17T14:44:01.698Z,24.82
2023-03-17T14:46:35.065Z,24.71
2023-03-17T14:49:19.963Z,24.67
2023-03-17T14:51:53.568Z,25.59
2023-03-17T14:54:24.329Z,25.37
2023-03-17T14:57:02.543Z,25.00
2023-03-17T14:59:40.686Z,25.14
2023-03-17T15:02:31.853Z,25.69
2023-03-17T15:04:59.822Z,25.02
2023-03-17T15:07:41.343Z,25.34
2023-03-17T15:10:18.962Z,25.74
2023-03-17T15:12:49.103Z,26.05
2023-03-17T15:15:22.341Z,26.90
2023-03-17T15:17:54.726Z,26.27
2023-03-17T15:20:22.803Z,27.26
2023-03-17T15:22:59.989Z,26.61
2023-03-17T15:25:34.286Z,26.26
2023-03-17T15:28:01.820Z,26.37
2023-03-17T15:30:37.408Z,26.52
2023-03-17T15:33:28.497Z,26.54
2023-03-17T15:36:00.395Z,26.60
2023-03-17T15:38:28.372Z,27.01
2023-03-17T15:40:55.724Z,27.48
2023-03-17T15:43:23.236Z,28.05
2023-03-17T15:45:55.505Z,28.62
2023-03-17T15:48:25.506Z,28.44
2023-03-17T15:50:53.746Z,28.47
2023-03-17T15:53:21.368Z,28.79
2023-03-17T15:55:48.822Z,29.19
2023-03-17T15:58:16.476Z,29.18
2023-03-17T16:00:44.004Z,29.02
2023-03-17T16:03:31.565Z,28.98
2023-03-17T16:06:00.260Z,28.85
2023-03-17T16:08:27.602Z,29.19
2023-03-17T16:10:55.000Z,29.26
2023-03-17T16:13:22.554Z,30.07
2023-03-17T16:16:00.400Z,29.59
2023-03-17T16:18:36.319Z,29.64
2023-03-17T16:21:04.431Z,30.02
2023-03-17T16:23:32.480Z,29.79
2023-03-17T16:26:13.793Z,29.97
2023-03-17T16:28:42.137Z,29.89
2023-03-17T16:31:20.001Z,30.02
2023-03-17T16:33:47.419Z,30.07
2023-03-17T16:36:19.042Z,30.29
2023-03-17T16:38:46.845Z,30.85
2023-03-17T16:41:25.349Z,30.40
2023-03-17T16:43:55.365Z,30.57
2023-03-17T16:46:22.797Z,30.81
2023-03-17T16:48:50.367Z,31.14
2023-03-17T16:51:17.966Z,31.37
2023-03-17T16:53:45.918Z,31.72
2023-03-17T16:56:18.381Z,31.93
2023-03-17T16:58:46.137Z,32.01
2023-03-17T17:01:19.327Z,32.46
2023-03-17T17:03:47.080Z,32.70
2023-03-17T17:06:14.570Z,32.64
2023-03-17T17:08:43.135Z,33.01
2023-03-17T17:11:13.179Z,33.18
2023-03-17T17:13:44.803Z,33.45
2023-03-17T17:16:28.041Z,33.51
2023-03-17T17:18:55.812Z,33.76
2023-03-17T17:21:23.552Z,34.11
2023-03-17T17:23:52.909Z,34.19
2023-03-17T17:26:21.503Z,34.12
2023-03-17T17:28:49.205Z,34.52
2023-03-17T17:31:16.794Z,34.52
2023-03-17T17:33:44.145Z,34.73
2023-03-17T17:36:15.992Z,34.78
2023-03-17T17:38:43.836Z,35.10
2023-03-17T17:41:11.854Z,35.58
2023-03-17T17:43:39.411Z,35.96
2023-03-17T17:46:11.686Z,36.64
2023-03-17T17:48:39.089Z,36.89
2023-03-17T17:51:06.439Z,37.29
2023-03-17T17:53:33.946Z,37.61
2023-03-17T17:56:01.462Z,38.04
2023-03-17T17:58:29.061Z,38.25
2023-03-17T18:00:57.848Z,38.60
2023-03-17T18:03:25.636Z,38.67
2023-03-17T18:05:54.232Z,38.83
2023-03-17T18:08:21.927Z,38.56
2023-03-17T18:10:51.858Z,39.01
2023-03-17T18:13:19.783Z,39.08
2023-03-17T18:15:47.493Z,38.97
2023-03-17T18:18:14.984Z,39.13
2023-03-17T18:20:42.363Z,39.38
2023-03-17T18:23:09.717Z,39.62
2023-03-17T18:25:37.428Z,39.89
2023-03-17T18:28:04.955Z,39.86
2023-03-17T18:30:34.944Z,40.06
2023-03-17T18:33:06.587Z,40.18
2023-03-17T18:35:33.979Z,40.40
2023-03-17T18:38:01.632Z,40.48
2023-03-17T18:40:29.096Z,40.28
2023-03-17T18:42:56.409Z,40.54
2023-03-17T18:45:23.944Z,40.95
2023-03-17T18:47:51.251Z,41.06
2023-03-17T18:50:19.715Z,40.93
2023-03-17T18:52:47.128Z,40.72
2023-03-17T18:55:14.873Z,40.54
2023-03-17T18:57:44.468Z,40.67
2023-03-17T19:00:13.036Z,40.94
2023-03-17T19:02:40.400Z,40.89
2023-03-17T19:05:08.072Z,41.25
2023-03-17T19:07:36.024Z,41.09
2023-03-17T19:10:04.742Z,41.39
2023-03-17T19:12:32.016Z,41.51
2023-03-17T19:15:00.173Z,41.87
2023-03-17T19:17:28.394Z,41.60
2023-03-17T19:19:56.013Z,41.67
2023-03-17T19:22:23.903Z,41.78
2023-03-17T19:24:51.317Z,42.34
2023-03-17T19:27:18.630Z,42.18
2023-03-17T19:29:46.122Z,42.20
2023-03-17T19:32:13.498Z,42.05
2023-03-17T19:34:40.866Z,42.39
2023-03-17T19:37:08.423Z,42.63
2023-03-17T19:39:36.844Z,43.00
2023-03-17T19:42:04.276Z,42.87
2023-03-17T19:44:31.745Z,43.33
2023-03-17T19:47:01.713Z,43.41
2023-03-17T19:49:29.175Z,43.64
2023-03-17T19:51:56.593Z,44.02
2023-03-17T19:54:23.965Z,44.43
2023-03-17T19:56:51.982Z,44.16
2023-03-17T19:59:19.959Z,44.36
2023-03-17T20:01:48.803Z,44.49
2023-03-17T20:04:21.892Z,44.97
2023-03-17T20:06:52.275Z,45.06
2023-03-17T20:09:19.706Z,44.80
2023-03-17T20:11:47.023Z,45.01
2023-03-17T20:14:14.379Z,45.27
2023-03-17T20:16:42.493Z,45.44
2023-03-17T20:19:09.865Z,45.53
2023-03-17T20:21:37.806Z,45.90
2023-03-17T20:24:05.690Z,45.96
2023-03-17T20:26:34.233Z,46.28
2023-03-17T20:29:02.170Z,46.82
2023-03-17T20:31:29.756Z,46.94
2023-03-17T20:33:57.142Z,46.94
2023-03-17T20:36:24.548Z,47.48
2023-03-17T20:38:51.881Z,47.92
2023-03-17T20:41:19.234Z,48.69
2023-03-17T20:43:46.956Z,49.00
2023-03-17T20:46:19.250Z,48.78
2023-03-17T20:48:48.354Z,48.80
2023-03-17T20:51:16.770Z,49.04
2023-03-17T20:53:44.860Z,49.11
2023-03-17T20:56:16.489Z,49.34
2023-03-17T20:58:45.480Z,49.75
2023-03-17T21:01:13.627Z,49.56
2023-03-17T21:03:42.430Z,49.44
2023-03-17T21:06:09.940Z,49.42
2023-03-17T21:08:37.857Z,49.81
2023-03-17T21:11:05.960Z,49.41
2023-03-17T21:13:33.234Z,50.08
2023-03-17T21:16:01.576Z,50.24
2023-03-17T21:18:29.787Z,49.96
2023-03-17T21:20:57.035Z,49.72
2023-03-17T21:23:25.582Z,50.14
2023-03-17T21:25:56.136Z,50.32
2023-03-17T21:28:23.561Z,50.42
2023-03-17T21:30:50.949Z,50.42
2023-03-17T21:33:18.266Z,50.63
2023-03-17T21:35:45.620Z,50.64
2023-03-17T21:38:12.946Z,50.64
2023-03-17T21:40:40.646Z,50.44
2023-03-17T21:43:08.056Z,50.52
2023-03-17T21:45:35.714Z,50.64
2023-03-17T21:48:03.246Z,51.06
2023-03-17T21:50:31.796Z,50.78
2023-03-17T21:52:59.347Z,50.79
2023-03-17T21:55:27.305Z,50.72
2023-03-17T21:57:55.776Z,51.02
2023-03-17T22:00:23.615Z,50.78
2023-03-17T22:02:52.864Z,50.96
2023-03-17T22:05:20.597Z,50.71
2023-03-17T22:07:48.462Z,50.92
2023-03-17T22:10:15.823Z,50.88
2023-03-17T22:12:43.233Z,50.81
2023-03-17T22:15:10.942Z,51.17
2023-03-17T22:17:39.780Z,51.08
2023-03-17T22:20:08.042Z,51.04
2023-03-17T22:22:36.078Z,51.13
2023-03-17T22:25:06.306Z,51.31
2023-03-17T22:27:33.752Z,51.00
2023-03-17T22:30:01.065Z,51.45
2023-03-17T22:32:28.518Z,51.43
2023-03-17T22:34:55.893Z,51.55
2023-03-17T22:37:23.275Z,51.67
2023-03-17T22:39:50.733Z,51.18
2023-03-17T22:42:18.068Z,51.14
2023-03-17T22:44:45.489Z,51.40
2023-03-17T22:47:12.842Z,51.33
2023-03-17T22:49:40.091Z,51.47
2023-03-17T22:52:07.547Z,51.24
2023-03-17T22:54:34.828Z,51.44
2023-03-17T22:57:03.920Z,51.60
2023-03-17T22:59:32.551Z,51.69
2023-03-17T23:01:59.840Z,51.98
2023-03-17T23:04:27.278Z,51.76
2023-03-17T23:06:54.602Z,51.68
2023-03-17T23:09:22.103Z,51.68
2023-03-17T23:11:49.382Z,51.58
2023-03-17T23:14:16.778Z,51.30
2023-03-17T23:16:45.168Z,51.62
2023-03-17T23:19:12.585Z,51.22
2023-03-17T23:21:40.073Z,51.65
2023-03-17T23:24:07.944Z,51.60
2023-03-17T23:26:37.097Z,51.84
2023-03-17T23:29:05.350Z,51.79
2023-03-17T23:31:34.160Z,51.52
2023-03-17T23:34:01.459Z,51.73
2023-03-17T23:36:28.713Z,51.96
2023-03-17T23:38:56.072Z,52.12
2023-03-17T23:41:23.312Z,52.30
2023-03-17T23:43:51.158Z,52.31
2023-03-17T23:46:18.838Z,52.52
2023-03-17T23:48:46.261Z,52.62
2023-03-17T23:51:14.470Z,52.22
2023-03-17T23:53:41.972Z,52.13
2023-03-17T23:56:09.580Z,51.91
2023-03-17T23:58:37.485Z,52.10
